Wetterdaten: Woche 26.08.13 - 01.09.13 (KW35)
Datum Zeit Temp. A. Feuchte A. Luftdruck Regen Wind Richtung Taupunkt Windchill Windben
26.08.2013 00:00 15,1 C 78 % 1012,0 hPa 0,3 l/m 0,0 km/h N 11,3 C 15,1 C 0,0 km/h
26.08.2013 01:00 14,9 C 78 % 1012,1 hPa 0,0 l/m 0,0 km/h N 11,1 C 14,9 C 0,0 km/h
26.08.2013 02:00 14,6 C 78 % 1011,8 hPa 0,0 l/m 0,0 km/h N 10,8 C 14,6 C 0,0 km/h
26.08.2013 03:00 14,1 C 78 % 1011,9 hPa 0,0 l/m 0,0 km/h N 10,4 C 14,1 C 0,0 km/h
26.08.2013 04:00 13,6 C 78 % 1011,7 hPa 0,0 l/m 0,1 km/h N 9,8 C 13,6 C 1,2 km/h
26.08.2013 05:00 12,9 C 78 % 1011,8 hPa 0,0 l/m 0,0 km/h N 9,1 C 12,9 C 0,4 km/h
26.08.2013 06:00 12,4 C 77 % 1012,1 hPa 0,0 l/m 0,0 km/h N 8,6 C 12,4 C 0,0 km/h
26.08.2013 07:00 12,9 C 76 % 1012,3 hPa 0,0 l/m 0,0 km/h N 8,7 C 12,9 C 0,4 km/h
26.08.2013 08:00 14,8 C 74 % 1012,4 hPa 0,0 l/m 0,8 km/h N 10,1 C 14,8 C 6,0 km/h
26.08.2013 09:00 15,8 C 74 % 1012,6 hPa 0,0 l/m 3,0 km/h N 11,2 C 15,8 C 9,6 km/h
26.08.2013 10:00 16,4 C 80 % 1012,8 hPa 0,0 l/m 1,8 km/h N 12,9 C 16,4 C 7,6 km/h
26.08.2013 11:00 16,9 C 83 % 1012,8 hPa 0,0 l/m 1,9 km/h N 14,0 C 16,9 C 7,2 km/h
26.08.2013 12:00 17,4 C 83 % 1012,8 hPa 0,0 l/m 3,1 km/h N 14,5 C 17,4 C 10,1 km/h
26.08.2013 13:00 17,4 C 83 % 1012,8 hPa 0,0 l/m 2,3 km/h N 14,5 C 17,4 C 8,4 km/h
26.08.2013 14:00 17,2 C 83 % 1012,8 hPa 0,0 l/m 3,6 km/h N 14,3 C 17,2 C 10,9 km/h
26.08.2013 15:00 17,0 C 84 % 1013,1 hPa 0,0 l/m 1,8 km/h N 14,2 C 17,0 C 8,4 km/h
26.08.2013 16:00 17,0 C 83 % 1013,3 hPa 0,0 l/m 1,0 km/h N 14,0 C 17,0 C 5,6 km/h
26.08.2013 17:00 17,3 C 83 % 1013,3 hPa 0,0 l/m 2,8 km/h N 14,4 C 17,3 C 10,1 km/h
26.08.2013 18:00 17,3 C 82 % 1013,1 hPa 0,0 l/m 4,0 km/h N 14,2 C 17,3 C 11,7 km/h
26.08.2013 19:00 16,3 C 83 % 1013,3 hPa 0,0 l/m 2,5 km/h N 13,4 C 16,3 C 10,9 km/h
26.08.2013 20:00 15,8 C 83 % 1013,5 hPa 0,0 l/m 1,0 km/h N 12,9 C 15,8 C 6,4 km/h
26.08.2013 21:00 15,7 C 83 % 1013,9 hPa 0,0 l/m 0,3 km/h N 12,7 C 15,7 C 4,4 km/h
26.08.2013 22:00 15,7 C 82 % 1014,0 hPa 0,0 l/m 0,8 km/h N 12,6 C 15,7 C 5,6 km/h
26.08.2013 23:00 15,6 C 82 % 1014,1 hPa 0,0 l/m 0,7 km/h N 12,5 C 15,6 C 5,6 km/h
27.08.2013 00:00 15,5 C 82 % 1014,0 hPa 0,0 l/m 0,0 km/h N 12,4 C 15,5 C 0,0 km/h
27.08.2013 01:00 15,4 C 81 % 1013,8 hPa 0,0 l/m 0,1 km/h N 12,3 C 15,4 C 1,2 km/h
27.08.2013 02:00 15,5 C 81 % 1013,6 hPa 0,0 l/m 0,2 km/h N 12,3 C 15,5 C 4,0 km/h
27.08.2013 03:00 15,4 C 81 % 1013,6 hPa 0,0 l/m 0,4 km/h N 12,2 C 15,4 C 5,2 km/h
27.08.2013 04:00 15,1 C 81 % 1013,3 hPa 0,0 l/m 0,3 km/h N 11,9 C 15,1 C 4,4 km/h
27.08.2013 05:00 15,1 C 80 % 1013,4 hPa 0,0 l/m 0,3 km/h N 11,7 C 15,1 C 4,0 km/h
27.08.2013 06:00 15,1 C 80 % 1013,5 hPa 0,5 l/m 0,1 km/h N 11,7 C 15,1 C 2,8 km/h
27.08.2013 07:00 15,2 C 80 % 1013,4 hPa 0,0 l/m 0,0 km/h N 11,7 C 15,2 C 0,0 km/h
27.08.2013 08:00 15,3 C 79 % 1013,3 hPa 0,0 l/m 0,0 km/h N 11,7 C 15,3 C 0,0 km/h
27.08.2013 09:00 15,6 C 79 % 1013,1 hPa 0,0 l/m 0,0 km/h N 11,9 C 15,6 C 2,0 km/h
27.08.2013 10:00 15,8 C 78 % 1013,1 hPa 0,0 l/m 0,2 km/h N 12,0 C 15,8 C 3,2 km/h
27.08.2013 11:00 16,1 C 78 % 1013,4 hPa 0,0 l/m 0,1 km/h N 12,3 C 16,1 C 3,2 km/h
27.08.2013 12:00 16,8 C 77 % 1013,1 hPa 0,0 l/m 0,4 km/h N 12,8 C 16,8 C 4,0 km/h
27.08.2013 13:00 17,4 C 79 % 1012,9 hPa 0,0 l/m 0,5 km/h N 13,7 C 17,4 C 5,2 km/h
27.08.2013 14:00 18,2 C 82 % 1012,6 hPa 0,0 l/m 0,8 km/h N 15,1 C 18,2 C 6,4 km/h
27.08.2013 15:00 18,9 C 83 % 1012,2 hPa 0,0 l/m 1,3 km/h N 16,0 C 18,9 C 6,8 km/h
27.08.2013 16:00 19,0 C 82 % 1011,9 hPa 0,0 l/m 1,5 km/h N 15,9 C 19,0 C 9,3 km/h
27.08.2013 17:00 19,0 C 82 % 1011,6 hPa 0,0 l/m 2,6 km/h N 15,8 C 19,0 C 8,9 km/h
27.08.2013 18:00 18,6 C 81 % 1011,7 hPa 0,0 l/m 1,5 km/h N 15,3 C 18,6 C 8,4 km/h
27.08.2013 19:00 17,9 C 83 % 1012,0 hPa 0,0 l/m 0,8 km/h N 14,9 C 17,9 C 4,8 km/h
27.08.2013 20:00 17,6 C 83 % 1012,2 hPa 0,0 l/m 0,7 km/h N 14,7 C 17,6 C 5,2 km/h
27.08.2013 21:00 17,4 C 83 % 1012,3 hPa 0,3 l/m 0,3 km/h N 14,3 C 17,4 C 4,8 km/h
27.08.2013 22:00 17,2 C 82 % 1012,2 hPa 0,0 l/m 0,0 km/h N 14,0 C 17,2 C 2,0 km/h
27.08.2013 23:00 16,9 C 81 % 1012,3 hPa 0,0 l/m 0,0 km/h N 13,6 C 16,9 C 1,2 km/h
28.08.2013 00:00 16,8 C 80 % 1012,1 hPa 0,0 l/m 0,2 km/h N 13,3 C 16,8 C 3,2 km/h
28.08.2013 01:00 16,7 C 80 % 1012,0 hPa 0,3 l/m 0,0 km/h N 13,2 C 16,7 C 0,4 km/h
28.08.2013 02:00 16,5 C 80 % 1011,6 hPa 2,6 l/m 0,1 km/h N 13,0 C 16,5 C 1,6 km/h
28.08.2013 03:00 16,2 C 79 % 1011,0 hPa 1,6 l/m 0,2 km/h N 12,5 C 16,2 C 3,6 km/h
28.08.2013 04:00 16,0 C 78 % 1011,1 hPa 0,8 l/m 0,6 km/h N 12,1 C 16,0 C 4,8 km/h
28.08.2013 05:00 15,5 C 77 % 1011,3 hPa 0,0 l/m 0,5 km/h N 11,5 C 15,5 C 5,2 km/h
28.08.2013 06:00 15,3 C 77 % 1011,5 hPa 0,0 l/m 0,2 km/h N 11,2 C 15,3 C 3,6 km/h
28.08.2013 07:00 15,2 C 76 % 1012,0 hPa 2,3 l/m 1,2 km/h N 11,0 C 15,2 C 6,8 km/h
28.08.2013 08:00 14,8 C 76 % 1012,4 hPa 0,3 l/m 1,5 km/h N 10,7 C 14,8 C 6,4 km/h
28.08.2013 09:00 14,7 C 76 % 1012,7 hPa 2,3 l/m 2,0 km/h N 10,5 C 14,7 C 7,6 km/h
28.08.2013 10:00 14,9 C 75 % 1013,0 hPa 0,5 l/m 2,6 km/h N 10,5 C 14,9 C 8,4 km/h
28.08.2013 11:00 15,4 C 76 % 1013,0 hPa 0,0 l/m 4,4 km/h N 11,2 C 15,4 C 12,1 km/h
28.08.2013 12:00 16,2 C 80 % 1013,1 hPa 0,0 l/m 5,4 km/h N 12,7 C 16,2 C 14,1 km/h
28.08.2013 13:00 16,3 C 84 % 1013,6 hPa 0,0 l/m 6,9 km/h N 13,5 C 15,9 C 18,9 km/h
28.08.2013 14:00 16,3 C 83 % 1014,0 hPa 0,0 l/m 7,3 km/h N 13,4 C 15,8 C 18,5 km/h
28.08.2013 15:00 17,0 C 83 % 1014,1 hPa 0,0 l/m 6,1 km/h N 14,1 C 16,8 C 17,3 km/h
28.08.2013 16:00 17,4 C 81 % 1013,9 hPa 0,0 l/m 8,8 km/h N 14,2 C 16,3 C 20,9 km/h
28.08.2013 17:00 17,2 C 82 % 1014,3 hPa 0,0 l/m 6,0 km/h N 14,1 C 17,0 C 16,5 km/h
28.08.2013 18:00 17,0 C 83 % 1014,6 hPa 0,0 l/m 4,6 km/h N 14,1 C 17,0 C 15,7 km/h
28.08.2013 19:00 16,6 C 83 % 1015,1 hPa 0,3 l/m 5,9 km/h N 13,7 C 16,4 C 16,9 km/h
28.08.2013 20:00 16,3 C 83 % 1015,7 hPa 0,3 l/m 7,4 km/h N 13,4 C 15,8 C 20,9 km/h
28.08.2013 21:00 16,2 C 84 % 1015,9 hPa 0,0 l/m 8,9 km/h N 13,5 C 15,0 C 23,3 km/h
28.08.2013 22:00 16,1 C 84 % 1016,3 hPa 0,0 l/m 7,5 km/h N 13,4 C 15,2 C 20,5 km/h
28.08.2013 23:00 16,2 C 84 % 1016,6 hPa 0,0 l/m 8,3 km/h N 13,4 C 15,2 C 20,1 km/h
29.08.2013 00:00 16,3 C 83 % 1016,8 hPa 0,0 l/m 8,4 km/h N 13,3 C 15,3 C 21,7 km/h
29.08.2013 01:00 16,3 C 82 % 1017,2 hPa 0,0 l/m 7,8 km/h N 13,1 C 15,6 C 25,7 km/h
29.08.2013 02:00 16,1 C 82 % 1017,2 hPa 0,0 l/m 6,9 km/h N 13,0 C 15,7 C 18,9 km/h
29.08.2013 03:00 16,0 C 83 % 1017,4 hPa 0,0 l/m 6,8 km/h N 13,1 C 15,7 C 19,3 km/h
29.08.2013 04:00 16,3 C 83 % 1017,7 hPa 0,0 l/m 6,1 km/h N 13,3 C 16,0 C 18,5 km/h
29.08.2013 05:00 16,3 C 80 % 1017,8 hPa 0,0 l/m 8,2 km/h N 12,8 C 15,4 C 23,7 km/h
29.08.2013 06:00 16,3 C 79 % 1018,3 hPa 0,0 l/m 8,3 km/h N 12,5 C 15,3 C 20,5 km/h
29.08.2013 07:00 16,3 C 78 % 1018,9 hPa 0,0 l/m 7,1 km/h N 12,4 C 15,9 C 18,9 km/h
29.08.2013 08:00 16,7 C 76 % 1019,4 hPa 0,0 l/m 6,4 km/h N 12,3 C 16,5 C 22,9 km/h
29.08.2013 09:00 17,5 C 73 % 1019,5 hPa 0,0 l/m 9,1 km/h N 12,6 C 16,3 C 26,5 km/h
29.08.2013 10:00 19,2 C 68 % 1019,9 hPa 0,0 l/m 9,1 km/h N 13,1 C 18,1 C 24,5 km/h
29.08.2013 11:00 20,1 C 67 % 1019,9 hPa 0,0 l/m 8,4 km/h N 13,7 C 19,3 C 22,1 km/h
29.08.2013 12:00 21,1 C 64 % 1019,5 hPa 0,0 l/m 9,1 km/h N 13,9 C 20,1 C 25,3 km/h
29.08.2013 13:00 22,1 C 58 % 1019,1 hPa 0,0 l/m 7,9 km/h N 13,4 C 21,7 C 20,9 km/h
29.08.2013 14:00 22,2 C 54 % 1018,8 hPa 0,0 l/m 8,4 km/h N 12,5 C 21,6 C 21,7 km/h
29.08.2013 15:00 22,0 C 56 % 1018,5 hPa 0,0 l/m 6,3 km/h N 12,6 C 21,8 C 18,1 km/h
29.08.2013 16:00 21,8 C 54 % 1018,6 hPa 0,0 l/m 5,6 km/h N 11,9 C 21,8 C 18,5 km/h
29.08.2013 17:00 20,5 C 53 % 1018,9 hPa 0,0 l/m 4,9 km/h N 10,7 C 20,4 C 14,5 km/h
29.08.2013 18:00 20,5 C 52 % 1019,0 hPa 0,0 l/m 3,4 km/h N 10,3 C 20,5 C 11,7 km/h
29.08.2013 19:00 20,0 C 59 % 1019,3 hPa 0,0 l/m 1,3 km/h N 11,8 C 20,0 C 7,2 km/h
29.08.2013 20:00 18,3 C 63 % 1019,9 hPa 0,0 l/m 0,7 km/h N 11,2 C 18,3 C 5,2 km/h
29.08.2013 21:00 16,9 C 69 % 1020,5 hPa 0,0 l/m 0,0 km/h N 11,1 C 16,9 C 0,8 km/h
29.08.2013 22:00 15,9 C 74 % 1021,0 hPa 0,0 l/m 1,4 km/h N 11,2 C 15,9 C 6,4 km/h
29.08.2013 23:00 15,2 C 74 % 1020,9 hPa 0,0 l/m 0,0 km/h N 10,6 C 15,2 C 0,4 km/h
30.08.2013 00:00 14,3 C 78 % 1020,8 hPa 0,0 l/m 0,1 km/h N 10,4 C 14,3 C 3,2 km/h
30.08.2013 01:00 14,1 C 78 % 1020,4 hPa 0,0 l/m 0,4 km/h N 10,3 C 14,1 C 4,8 km/h
30.08.2013 02:00 14,7 C 75 % 1020,2 hPa 0,0 l/m 0,8 km/h N 10,3 C 14,7 C 6,8 km/h
30.08.2013 03:00 14,6 C 75 % 1020,1 hPa 0,0 l/m 0,8 km/h N 10,3 C 14,6 C 4,4 km/h
30.08.2013 04:00 14,0 C 76 % 1020,1 hPa 0,0 l/m 0,0 km/h N 9,9 C 14,0 C 0,4 km/h
30.08.2013 05:00 12,5 C 80 % 1020,2 hPa 0,0 l/m 0,0 km/h N 9,1 C 12,5 C 1,2 km/h
30.08.2013 06:00 11,7 C 83 % 1020,5 hPa 0,0 l/m 0,4 km/h N 9,0 C 11,7 C 4,8 km/h
30.08.2013 07:00 12,3 C 83 % 1020,6 hPa 0,0 l/m 0,1 km/h N 9,4 C 12,3 C 2,8 km/h
30.08.2013 08:00 15,4 C 80 % 1020,7 hPa 0,0 l/m 0,4 km/h N 12,0 C 15,4 C 4,4 km/h
30.08.2013 09:00 19,2 C 64 % 1020,5 hPa 0,0 l/m 3,5 km/h N 12,1 C 19,2 C 12,1 km/h
30.08.2013 10:00 20,3 C 61 % 1020,5 hPa 0,0 l/m 4,9 km/h N 12,5 C 20,3 C 14,9 km/h
30.08.2013 11:00 21,0 C 60 % 1020,4 hPa 0,0 l/m 3,9 km/h N 12,8 C 21,0 C 12,1 km/h
30.08.2013 12:00 22,1 C 54 % 1020,1 hPa 0,0 l/m 3,4 km/h N 12,3 C 22,1 C 10,5 km/h
30.08.2013 13:00 23,5 C 48 % 1019,7 hPa 0,0 l/m 2,9 km/h N 11,9 C 23,5 C 11,3 km/h
30.08.2013 14:00 23,3 C 49 % 1019,4 hPa 0,0 l/m 3,0 km/h N 11,9 C 23,3 C 9,7 km/h
30.08.2013 15:00 23,4 C 46 % 1018,9 hPa 0,0 l/m 2,0 km/h N 11,0 C 23,4 C 8,0 km/h
30.08.2013 16:00 23,5 C 45 % 1018,5 hPa 0,0 l/m 2,3 km/h N 10,7 C 23,5 C 10,9 km/h
30.08.2013 17:00 23,3 C 45 % 1018,3 hPa 0,0 l/m 2,2 km/h N 10,8 C 23,3 C 10,9 km/h
30.08.2013 18:00 22,6 C 49 % 1018,3 hPa 0,0 l/m 1,3 km/h N 11,3 C 22,6 C 6,8 km/h
30.08.2013 19:00 21,4 C 54 % 1018,3 hPa 0,0 l/m 0,1 km/h N 11,6 C 21,4 C 1,6 km/h
30.08.2013 20:00 18,5 C 64 % 1018,7 hPa 0,0 l/m 0,0 km/h N 11,6 C 18,5 C 0,0 km/h
30.08.2013 21:00 16,3 C 71 % 1019,0 hPa 0,0 l/m 0,1 km/h N 11,1 C 16,3 C 3,2 km/h
30.08.2013 22:00 15,6 C 73 % 1019,0 hPa 0,0 l/m 0,2 km/h N 10,9 C 15,6 C 2,0 km/h
30.08.2013 23:00 15,0 C 75 % 1019,0 hPa 0,0 l/m 0,2 km/h N 10,5 C 15,0 C 4,4 km/h
31.08.2013 00:00 14,3 C 76 % 1019,1 hPa 0,0 l/m 0,1 km/h N 10,1 C 14,3 C 1,6 km/h
31.08.2013 01:00 13,8 C 77 % 1019,2 hPa 0,0 l/m 0,4 km/h N 9,9 C 13,8 C 4,4 km/h
31.08.2013 02:00 13,3 C 79 % 1019,1 hPa 0,0 l/m 0,2 km/h N 9,6 C 13,3 C 2,4 km/h
31.08.2013 03:00 12,8 C 80 % 1019,1 hPa 0,0 l/m 0,0 km/h N 9,4 C 12,8 C 0,0 km/h
31.08.2013 04:00 12,4 C 81 % 1019,0 hPa 0,0 l/m 0,0 km/h N 9,2 C 12,4 C 0,4 km/h
31.08.2013 05:00 12,2 C 80 % 1019,0 hPa 0,0 l/m 0,0 km/h N 8,9 C 12,2 C 0,0 km/h
31.08.2013 06:00 11,6 C 82 % 1019,1 hPa 0,0 l/m 0,0 km/h N 8,5 C 11,6 C 0,0 km/h
31.08.2013 07:00 12,1 C 83 % 1019,5 hPa 0,0 l/m 0,0 km/h N 9,3 C 12,1 C 1,2 km/h
31.08.2013 08:00 14,6 C 83 % 1019,5 hPa 0,0 l/m 0,1 km/h N 11,7 C 14,6 C 1,6 km/h
31.08.2013 09:00 18,6 C 72 % 1019,5 hPa 0,0 l/m 0,0 km/h N 13,4 C 18,6 C 1,6 km/h
31.08.2013 10:00 22,9 C 55 % 1019,2 hPa 0,0 l/m 2,0 km/h N 13,2 C 22,9 C 10,1 km/h
31.08.2013 11:00 24,1 C 50 % 1019,0 hPa 0,0 l/m 4,6 km/h N 12,9 C 24,1 C 16,9 km/h
31.08.2013 12:00 24,8 C 47 % 1018,6 hPa 0,0 l/m 4,9 km/h N 12,6 C 24,8 C 14,9 km/h
31.08.2013 13:00 25,1 C 45 % 1018,4 hPa 0,0 l/m 4,1 km/h N 12,4 C 25,1 C 15,7 km/h
31.08.2013 14:00 25,3 C 42 % 1018,1 hPa 0,0 l/m 5,3 km/h N 11,2 C 25,3 C 16,9 km/h
31.08.2013 15:00 24,8 C 43 % 1017,8 hPa 0,0 l/m 5,1 km/h N 11,3 C 24,8 C 15,3 km/h
31.08.2013 16:00 24,7 C 43 % 1017,8 hPa 0,0 l/m 6,4 km/h N 11,2 C 24,5 C 19,7 km/h
31.08.2013 17:00 24,5 C 42 % 1017,5 hPa 0,0 l/m 4,9 km/h N 10,5 C 24,5 C 18,5 km/h
31.08.2013 18:00 23,9 C 42 % 1017,3 hPa 0,0 l/m 3,2 km/h N 10,0 C 23,9 C 14,9 km/h
31.08.2013 19:00 22,5 C 49 % 1017,3 hPa 0,0 l/m 0,0 km/h N 11,2 C 22,5 C 0,0 km/h
31.08.2013 20:00 20,0 C 58 % 1017,6 hPa 0,0 l/m 0,0 km/h N 11,5 C 20,0 C 0,0 km/h
31.08.2013 21:00 18,6 C 63 % 1017,9 hPa 0,0 l/m 0,0 km/h N 11,3 C 18,6 C 0,0 km/h
31.08.2013 22:00 17,7 C 65 % 1017,9 hPa 0,0 l/m 0,0 km/h N 11,0 C 17,7 C 0,0 km/h
31.08.2013 23:00 16,8 C 70 % 1018,1 hPa 0,0 l/m 0,0 km/h N 11,1 C 16,8 C 0,4 km/h
01.09.2013 00:00 16,8 C 80 % 1018,1 hPa 1,0 l/m 0,2 km/h N 13,3 C 16,8 C 5,2 km/h
01.09.2013 01:00 16,6 C 82 % 1018,0 hPa 0,0 l/m 0,0 km/h N 13,5 C 16,6 C 0,4 km/h
01.09.2013 02:00 15,6 C 83 % 1018,2 hPa 0,0 l/m 0,0 km/h N 12,7 C 15,6 C 2,8 km/h
01.09.2013 03:00 17,2 C 77 % 1017,9 hPa 0,0 l/m 3,9 km/h N 13,1 C 17,2 C 14,9 km/h
01.09.2013 04:00 19,0 C 67 % 1017,9 hPa 0,0 l/m 8,8 km/h N 12,7 C 18,1 C 24,2 km/h
01.09.2013 05:00 18,9 C 67 % 1018,2 hPa 0,0 l/m 8,8 km/h N 12,6 C 17,9 C 24,1 km/h
01.09.2013 06:00 18,5 C 69 % 1018,7 hPa 0,0 l/m 6,2 km/h N 12,7 C 18,3 C 20,9 km/h
01.09.2013 07:00 18,5 C 71 % 1018,9 hPa 0,0 l/m 4,7 km/h N 13,0 C 18,2 C 14,9 km/h
01.09.2013 08:00 18,6 C 72 % 1019,3 hPa 0,0 l/m 4,3 km/h N 13,3 C 18,6 C 17,7 km/h
01.09.2013 09:00 19,2 C 71 % 1019,6 hPa 0,0 l/m 10,2 km/h N 13,8 C 17,6 C 26,6 km/h
01.09.2013 10:00 19,5 C 71 % 1020,2 hPa 0,0 l/m 10,3 km/h N 14,1 C 18,0 C 25,8 km/h
01.09.2013 11:00 18,8 C 75 % 1020,9 hPa 0,0 l/m 11,0 km/h N 14,1 C 16,9 C 27,8 km/h
01.09.2013 12:00 19,4 C 71 % 1020,8 hPa 0,0 l/m 8,4 km/h N 14,0 C 18,6 C 22,9 km/h
01.09.2013 13:00 20,7 C 60 % 1020,9 hPa 0,0 l/m 9,2 km/h N 12,7 C 19,7 C 24,1 km/h
01.09.2013 14:00 21,2 C 60 % 1020,5 hPa 0,0 l/m 7,3 km/h N 13,1 C 20,8 C 21,7 km/h
01.09.2013 15:00 20,7 C 57 % 1020,1 hPa 0,0 l/m 5,9 km/h N 11,8 C 20,7 C 18,1 km/h
01.09.2013 16:00 20,8 C 52 % 1020,0 hPa 0,0 l/m 8,1 km/h N 10,7 C 20,2 C 22,5 km/h
01.09.2013 17:00 20,6 C 51 % 1020,0 hPa 0,0 l/m 6,6 km/h N 10,1 C 20,6 C 18,5 km/h
01.09.2013 18:00 19,8 C 52 % 1020,2 hPa 0,0 l/m 3,7 km/h N 9,6 C 19,8 C 14,5 km/h
01.09.2013 19:00 18,1 C 65 % 1021,3 hPa 0,3 l/m 2,6 km/h N 11,3 C 18,1 C 10,9 km/h
01.09.2013 20:00 15,9 C 79 % 1022,0 hPa 0,0 l/m 0,4 km/h N 12,3 C 15,9 C 4,4 km/h
01.09.2013 21:00 15,3 C 72 % 1022,8 hPa 0,0 l/m 0,4 km/h N 10,2 C 15,3 C 4,4 km/h
01.09.2013 22:00 15,0 C 66 % 1023,3 hPa 0,0 l/m 0,2 km/h N 8,6 C 15,0 C 1,6 km/h
01.09.2013 23:00 13,8 C 76 % 1023,4 hPa 0,0 l/m 0,0 km/h N 9,5 C 13,8 C 0,0 km/h
Min-Datum _ 31.08.13 31.08.13 28.08.13 - 26.08.13 - 01.09.13 31.08.13 26.08.13
_ Min-Zeit 06:45 18:00 03:15 - 00:00 - 22:00 06:45 00:00
Minimum _ 11,3 C 38 % 1011,0 hPa - 0,0 km/h - 8,0 C 11,3 C 0,0 km/h
Max-Datum _ 31.08.13 26.08.13 01.09.13 28.08.13 01.09.13 - 27.08.13 31.08.13 29.08.13
_ Max-Zeit 14:30 15:30 22:15 02:15 09:45 - 16:00 14:30 09:45
Maximum _ 25,4 C 85 % 1023,6 hPa 2,6 l/m 12,2 km/h
N
- 16,3 C 25,4 C 32,2 km/h
N
Durchschnitt _ 17,4 C 72 % 1016,6 hPa #13,5 l/m 2,8 km/h N 12,1 C 17,2 C 9,6 km/h